Time;durP1;ratioP1;P1;durP2;ratioP2;P2;SDS_P1;SDS_P2;PMS_P1;PMS_P2;Temp;Humidity;BMP_temperature;BMP_pressure;BME280_temperature;BME280_humidity;BME280_pressure;Samples;Min_cycle;Max_cycle;Signal;HPM_P1;HPM_P2
2023/07/10 00:00:11;;;;;;;0.00;0.00;;;;;;;21.49;62.92;102131.94;5052890;28;20017;-78
2023/07/10 00:02:38;;;;;;;0.10;0.10;;;;;;;21.49;62.67;102124.72;5051852;28;20107;-78
2023/07/10 00:05:11;;;;;;;0.10;0.10;;;;;;;21.49;62.52;102126.56;5054377;28;20111;-77
2023/07/10 00:07:37;;;;;;;0.10;0.10;;;;;;;21.48;62.75;102140.97;5053509;28;20036;-77
2023/07/10 00:10:03;;;;;;;0.00;0.00;;;;;;;21.48;62.83;102135.59;5049819;28;20035;-77
2023/07/10 00:12:29;;;;;;;0.10;0.10;;;;;;;21.48;62.68;102130.19;5054737;28;20025;-78
2023/07/10 00:14:56;;;;;;;0.28;0.28;;;;;;;21.50;62.64;102133.72;5056392;28;20061;-78
2023/07/10 00:17:22;;;;;;;0.00;0.00;;;;;;;21.49;62.36;102130.13;5057980;28;20025;-77
2023/07/10 00:19:48;;;;;;;0.10;0.10;;;;;;;21.49;62.08;102127.41;5054256;28;20158;-77
2023/07/10 00:22:14;;;;;;;0.10;0.10;;;;;;;21.48;62.13;102130.19;5050704;28;20021;-79
2023/07/10 00:24:40;;;;;;;0.03;0.03;;;;;;;21.48;62.16;102124.81;5060394;28;20035;-77
2023/07/10 00:27:12;;;;;;;0.10;0.10;;;;;;;21.52;62.23;102123.75;5061637;28;20060;-78
2023/07/10 00:29:39;;;;;;;0.10;0.10;;;;;;;21.51;62.34;102130.06;5061133;28;20032;-78
2023/07/10 00:32:12;;;;;;;0.10;0.10;;;;;;;21.54;62.37;102121.81;5059901;28;20411;-78
2023/07/10 00:34:39;;;;;;;0.00;0.00;;;;;;;21.52;62.30;102118.34;5060960;28;20025;-78
2023/07/10 00:37:05;;;;;;;0.08;0.08;;;;;;;21.52;62.40;102126.44;5058565;28;20033;-78
2023/07/10 00:39:36;;;;;;;0.00;0.00;;;;;;;21.52;62.41;102123.75;5060088;28;20060;-78
2023/07/10 00:42:17;;;;;;;0.10;0.10;;;;;;;21.49;62.09;102131.94;5059565;28;20076;-79
2023/07/10 00:44:50;;;;;;;0.00;0.00;;;;;;;21.45;62.10;102135.75;5046307;28;20075;-78
2023/07/10 00:50:08;;;;;;;0.00;0.00;;;;;;;21.30;62.20;102132.78;5075903;28;20391;-79
2023/07/10 00:52:39;;;;;;;0.10;0.10;;;;;;;21.24;62.20;102121.41;5061332;28;20029;-79
2023/07/10 00:55:20;;;;;;;0.10;0.10;;;;;;;21.24;62.23;102133.06;5057988;28;20025;-79
2023/07/10 00:57:50;;;;;;;0.10;0.10;;;;;;;21.16;62.65;102136.09;5060518;28;20076;-79
2023/07/10 01:00:21;;;;;;;0.03;0.03;;;;;;;21.15;62.57;102133.47;5058574;28;20055;-78
2023/07/10 01:02:48;;;;;;;0.10;0.10;;;;;;;21.09;63.01;102123.84;5056657;28;20116;-78
2023/07/10 01:05:17;;;;;;;0.10;0.10;;;;;;;21.09;62.71;102129.22;5059766;28;20025;-78
2023/07/10 01:07:49;;;;;;;0.10;0.10;;;;;;;21.05;63.59;102126.72;5056808;28;20036;-78
2023/07/10 01:10:16;;;;;;;0.22;0.22;;;;;;;21.02;63.48;102122.34;5050722;28;20057;-78
2023/07/10 01:12:43;;;;;;;0.10;0.10;;;;;;;20.98;63.51;102131.50;5059083;28;20029;-78
2023/07/10 01:15:12;;;;;;;0.20;0.20;;;;;;;20.94;63.92;102129.91;5059641;28;20025;-79
2023/07/10 01:17:38;;;;;;;0.00;0.00;;;;;;;20.87;64.02;102133.78;5056805;28;20040;-78
2023/07/10 01:20:42;;;;;;;0.10;0.10;;;;;;;20.89;63.64;102138.19;5056759;28;20029;-78
2023/07/10 01:23:08;;;;;;;0.38;0.38;;;;;;;20.79;63.45;102134.13;5057838;28;20039;-78
2023/07/10 01:25:43;;;;;;;0.00;0.00;;;;;;;20.78;63.15;102145.84;5059153;28;20045;-78
2023/07/10 01:28:14;;;;;;;0.10;0.10;;;;;;;20.68;62.88;102140.78;5056772;28;20171;-78
2023/07/10 01:30:43;;;;;;;0.20;0.20;;;;;;;20.66;62.72;102142.69;5055263;28;20053;-77
2023/07/10 01:33:17;;;;;;;0.25;0.25;;;;;;;20.69;62.40;102142.56;5054669;28;20064;-78
2023/07/10 01:35:44;;;;;;;0.00;0.00;;;;;;;20.67;62.31;102144.47;5063537;28;20368;-77
2023/07/10 01:38:13;;;;;;;0.10;0.10;;;;;;;20.66;62.35;102148.09;5062539;28;20031;-81
2023/07/10 01:40:45;;;;;;;0.10;0.10;;;;;;;20.68;62.23;102143.50;5053931;28;20040;-81
2023/07/10 01:43:11;;;;;;;0.10;0.10;;;;;;;20.64;62.25;102133.78;5045053;28;20100;-82
2023/07/10 01:45:43;;;;;;;0.10;0.10;;;;;;;20.53;62.37;102136.94;5052323;28;20120;-82
2023/07/10 01:48:11;;;;;;;0.55;0.55;;;;;;;20.57;61.92;102126.91;5051512;28;20541;-81
2023/07/10 01:50:38;;;;;;;0.10;0.10;;;;;;;20.51;62.19;102132.53;5051411;28;20040;-81
2023/07/10 01:53:07;;;;;;;0.10;0.10;;;;;;;20.53;61.99;102125.28;5050134;28;20037;-83
2023/07/10 01:55:38;;;;;;;0.10;0.10;;;;;;;20.49;62.17;102129.94;5052238;28;20029;-82
2023/07/10 01:58:04;;;;;;;0.10;0.10;;;;;;;20.48;62.27;102132.69;5051232;28;20047;-81
2023/07/10 02:00:31;;;;;;;0.00;0.00;;;;;;;20.39;62.93;102138.44;5041623;28;20029;-80
2023/07/10 02:02:57;;;;;;;0.10;0.10;;;;;;;20.41;62.61;102133.88;5035991;28;20025;-79
2023/07/10 02:05:23;;;;;;;0.10;0.10;;;;;;;20.31;63.28;102141.44;5046143;28;20031;-79
2023/07/10 02:07:49;;;;;;;0.10;0.10;;;;;;;20.28;63.12;102139.75;5035672;28;20029;-80
2023/07/10 02:10:16;;;;;;;0.00;0.00;;;;;;;20.27;63.53;102132.63;5037926;28;20091;-79
2023/07/10 02:12:42;;;;;;;0.20;0.20;;;;;;;20.25;63.50;102142.59;5037620;28;20089;-79
2023/07/10 02:15:08;;;;;;;0.05;0.05;;;;;;;20.24;63.45;102139.94;5037489;28;20183;-78
2023/07/10 02:17:34;;;;;;;0.22;0.22;;;;;;;20.18;63.91;102135.69;5037758;28;20392;-77
2023/07/10 02:20:00;;;;;;;0.10;0.10;;;;;;;20.11;64.56;102128.78;5037428;28;20033;-78
2023/07/10 02:22:27;;;;;;;0.00;0.00;;;;;;;20.13;64.31;102132.31;5035326;28;20122;-79
2023/07/10 02:24:54;;;;;;;0.00;0.00;;;;;;;20.13;64.22;102129.63;5031394;28;20026;-79
2023/07/10 02:27:20;;;;;;;0.17;0.17;;;;;;;20.08;64.70;102123.56;5033917;28;20017;-79
2023/07/10 02:29:46;;;;;;;0.10;0.10;;;;;;;20.04;64.85;102128.19;5036770;28;20574;-79
2023/07/10 02:32:12;;;;;;;0.10;0.10;;;;;;;19.97;65.13;102127.50;5029717;28;20022;-79
2023/07/10 02:34:38;;;;;;;0.05;0.05;;;;;;;19.98;65.17;102123.91;5025990;28;20517;-78
2023/07/10 02:37:04;;;;;;;0.10;0.10;;;;;;;20.00;64.86;102121.13;5031627;28;20057;-78
2023/07/10 02:39:30;;;;;;;0.10;0.10;;;;;;;19.94;64.93;102111.50;5031296;28;20035;-77
2023/07/10 02:41:57;;;;;;;0.00;0.00;;;;;;;19.92;65.24;102121.44;5034167;28;20132;-78
2023/07/10 02:44:23;;;;;;;0.20;0.20;;;;;;;19.93;65.07;102114.28;5030009;28;20550;-78
2023/07/10 02:46:51;;;;;;;0.10;0.10;;;;;;;19.87;65.49;102115.38;5032207;28;20029;-78
2023/07/10 02:49:18;;;;;;;0.00;0.00;;;;;;;19.87;65.56;102113.53;5031373;28;20044;-78
2023/07/10 02:51:44;;;;;;;0.10;0.10;;;;;;;19.89;64.73;102116.19;5032461;28;20041;-78
2023/07/10 02:54:12;;;;;;;0.05;0.05;;;;;;;19.89;64.90;102116.19;5033882;28;20051;-78
2023/07/10 02:56:38;;;;;;;0.10;0.10;;;;;;;19.87;64.89;102118.94;5034378;28;20111;-78
2023/07/10 02:59:04;;;;;;;0.10;0.10;;;;;;;19.84;65.53;102118.19;5034699;28;20036;-77
2023/07/10 03:01:31;;;;;;;0.03;0.03;;;;;;;19.84;65.66;102126.25;5033889;28;20084;-78
2023/07/10 03:03:57;;;;;;;2.72;1.13;;;;;;;19.83;65.63;102129.88;5039198;28;20037;-77
2023/07/10 03:06:24;;;;;;;0.32;0.30;;;;;;;19.84;65.41;102131.66;5035745;28;20044;-77
2023/07/10 03:08:53;;;;;;;0.10;0.10;;;;;;;19.84;65.19;102135.19;5038647;28;20032;-77
2023/07/10 03:11:21;;;;;;;0.10;0.10;;;;;;;19.80;65.73;102125.47;5038836;28;20057;-76
2023/07/10 03:13:47;;;;;;;0.10;0.10;;;;;;;19.80;66.27;102132.66;5042290;28;20038;-77
2023/07/10 03:16:15;;;;;;;0.40;0.40;;;;;;;19.81;65.73;102134.41;5041019;28;20029;-77
2023/07/10 03:18:41;;;;;;;0.55;0.55;;;;;;;19.79;66.37;102134.47;5041087;28;20047;-78
2023/07/10 03:21:08;;;;;;;0.10;0.10;;;;;;;19.79;66.00;102133.56;5038324;28;20027;-78
2023/07/10 03:23:35;;;;;;;0.15;0.15;;;;;;;19.77;65.79;102135.47;5042636;28;20032;-78
2023/07/10 03:26:01;;;;;;;0.10;0.10;;;;;;;19.77;65.86;102146.22;5038972;28;20056;-79
2023/07/10 03:28:28;;;;;;;0.10;0.10;;;;;;;19.76;65.75;102148.00;5033167;28;20053;-77
2023/07/10 03:30:54;;;;;;;0.03;0.03;;;;;;;19.75;65.98;102150.78;5034119;28;20033;-79
2023/07/10 03:33:20;;;;;;;0.10;0.10;;;;;;;19.76;65.74;102152.53;5033205;28;20029;-78
2023/07/10 03:35:48;;;;;;;0.10;0.10;;;;;;;19.76;65.31;102152.53;5032737;28;20506;-79
2023/07/10 03:38:15;;;;;;;0.10;0.10;;;;;;;19.75;66.39;102158.84;5032067;28;20049;-79
2023/07/10 03:40:51;;;;;;;0.00;0.00;;;;;;;19.79;66.01;102158.66;5033272;28;20052;-78
2023/07/10 03:43:17;;;;;;;0.00;0.00;;;;;;;19.73;65.72;102151.69;5029944;28;20022;-78
2023/07/10 03:45:43;;;;;;;0.40;0.40;;;;;;;19.73;66.38;102165.16;5031632;28;20075;-78
2023/07/10 03:48:09;;;;;;;0.00;0.00;;;;;;;19.73;66.33;102162.44;5031366;28;20022;-79
2023/07/10 03:50:35;;;;;;;0.10;0.10;;;;;;;19.75;66.32;102170.50;5034377;28;20049;-80
2023/07/10 03:53:02;;;;;;;0.10;0.10;;;;;;;19.73;66.27;102162.44;5040899;28;20033;-79
2023/07/10 03:55:28;;;;;;;0.10;0.10;;;;;;;19.72;66.64;102166.06;5043603;28;20032;-78
2023/07/10 03:57:54;;;;;;;0.10;0.10;;;;;;;19.72;66.38;102170.59;5036338;28;20041;-78
2023/07/10 04:00:20;;;;;;;0.10;0.10;;;;;;;19.71;66.77;102175.09;5037391;28;20030;-79
2023/07/10 04:02:46;;;;;;;0.10;0.10;;;;;;;19.70;66.72;102178.72;5037602;28;20498;-79
2023/07/10 04:05:12;;;;;;;0.10;0.10;;;;;;;19.70;66.91;102183.19;5036628;28;20047;-79
2023/07/10 04:07:38;;;;;;;0.00;0.00;;;;;;;19.69;67.05;102179.66;5037980;28;20082;-79
2023/07/10 04:10:04;;;;;;;0.10;0.10;;;;;;;19.68;66.88;102182.41;5036248;28;20041;-78
2023/07/10 04:12:30;;;;;;;0.80;0.75;;;;;;;19.67;66.63;102186.03;5036696;28;20028;-79
2023/07/10 04:14:57;;;;;;;0.10;0.10;;;;;;;19.66;66.78;102192.31;5037837;28;20029;-79
2023/07/10 04:17:23;;;;;;;0.00;0.00;;;;;;;19.64;67.11;102184.31;5038163;28;20025;-79
2023/07/10 04:19:49;;;;;;;0.00;0.00;;;;;;;19.64;66.91;102189.69;5037593;28;20036;-79
2023/07/10 04:22:15;;;;;;;0.10;0.10;;;;;;;19.63;67.02;102187.94;5039028;28;20048;-79
2023/07/10 04:24:41;;;;;;;0.20;0.20;;;;;;;19.62;66.91;102193.38;5039644;28;20376;-80
2023/07/10 04:27:08;;;;;;;0.20;0.20;;;;;;;19.60;66.96;102193.44;5037246;28;20029;-79
2023/07/10 04:29:35;;;;;;;0.10;0.10;;;;;;;19.61;67.09;102195.16;5035147;28;20071;-79
2023/07/10 04:32:01;;;;;;;0.00;0.00;;;;;;;19.62;67.21;102196.06;5035494;28;20041;-78
2023/07/10 04:34:27;;;;;;;0.10;0.10;;;;;;;19.62;67.28;102205.00;5039249;28;20037;-78
2023/07/10 04:36:53;;;;;;;0.10;0.10;;;;;;;19.61;67.19;102195.16;5037915;28;20438;-79
2023/07/10 04:39:19;;;;;;;0.57;0.57;;;;;;;19.63;67.15;102195.13;5036454;28;20028;-79
2023/07/10 04:41:45;;;;;;;0.05;0.05;;;;;;;19.63;67.05;102193.31;5035808;28;20049;-78
2023/07/10 04:44:11;;;;;;;0.00;0.00;;;;;;;19.65;67.04;102196.84;5035896;28;20030;-79
2023/07/10 04:46:38;;;;;;;0.10;0.10;;;;;;;19.66;66.80;102193.19;5035257;28;20053;-79
2023/07/10 04:49:04;;;;;;;0.35;0.35;;;;;;;19.67;67.27;102194.94;5033445;28;20029;-79
2023/07/10 04:51:30;;;;;;;0.10;0.10;;;;;;;19.69;67.10;102203.84;5035672;28;20083;-79
2023/07/10 04:53:56;;;;;;;0.00;0.00;;;;;;;19.70;67.06;102200.22;5035667;28;20368;-79
2023/07/10 04:56:22;;;;;;;0.20;0.20;;;;;;;19.71;67.48;102201.09;5035257;28;20058;-78
2023/07/10 04:58:52;;;;;;;0.10;0.10;;;;;;;19.77;67.54;102197.31;5034424;28;20052;-78
2023/07/10 05:01:21;;;;;;;0.10;0.10;;;;;;;19.79;67.76;102192.72;5034186;28;20084;-79
2023/07/10 05:03:48;;;;;;;0.00;0.00;;;;;;;19.79;67.89;102199.00;5034245;28;20087;-78
2023/07/10 05:06:15;;;;;;;0.00;0.00;;;;;;;19.84;67.48;102202.44;5038437;28;20036;-79
2023/07/10 05:08:42;;;;;;;0.35;0.35;;;;;;;19.85;68.02;102197.91;5038294;28;20033;-78
2023/07/10 05:11:08;;;;;;;0.10;0.10;;;;;;;19.90;68.04;102206.72;5034318;28;20030;-79
2023/07/10 05:13:34;;;;;;;0.10;0.10;;;;;;;19.96;67.44;102201.13;5036384;28;20029;-80
2023/07/10 05:16:00;;;;;;;0.10;0.10;;;;;;;19.97;67.40;102205.53;5031876;28;20035;-78
2023/07/10 05:18:27;;;;;;;0.10;0.10;;;;;;;20.07;66.87;102187.22;5033040;28;20474;-79
2023/07/10 05:20:53;;;;;;;0.10;0.10;;;;;;;20.11;67.33;102193.38;5035078;28;20033;-78
2023/07/10 05:23:20;;;;;;;0.10;0.10;;;;;;;20.15;66.69;102189.59;5039775;28;20529;-77
2023/07/10 05:26:08;;;;;;;0.00;0.00;;;;;;;20.28;66.52;102190.88;5035348;28;20037;-78
2023/07/10 05:28:35;;;;;;;0.10;0.10;;;;;;;20.27;66.54;102185.56;5032811;28;20022;-79
2023/07/10 05:31:03;;;;;;;0.20;0.20;;;;;;;20.23;66.93;102187.50;5031893;28;20037;-79
2023/07/10 05:33:30;;;;;;;0.10;0.10;;;;;;;20.29;66.53;102181.03;5033656;28;20038;-79
2023/07/10 05:35:58;;;;;;;0.00;0.00;;;;;;;20.41;66.28;102198.47;5036701;28;20056;-79
2023/07/10 05:38:27;;;;;;;0.10;0.10;;;;;;;20.41;66.14;102195.78;5037142;28;20033;-79
2023/07/10 05:40:53;;;;;;;0.20;0.20;;;;;;;20.42;66.33;102205.63;5037452;28;20091;-79
2023/07/10 05:43:20;;;;;;;0.05;0.05;;;;;;;20.48;66.08;102197.31;5036523;28;20463;-79
2023/07/10 05:45:48;;;;;;;0.10;0.10;;;;;;;20.55;65.98;102197.91;5037359;28;20048;-79
2023/07/10 05:48:14;;;;;;;0.43;0.43;;;;;;;20.60;65.87;102194.13;5036156;28;20099;-78
2023/07/10 05:50:44;;;;;;;0.30;0.30;;;;;;;20.61;65.46;102189.59;5041334;28;20048;-78
2023/07/10 05:53:10;;;;;;;0.10;0.10;;;;;;;20.59;64.95;102189.66;5037250;28;20064;-78
2023/07/10 05:55:36;;;;;;;0.00;0.00;;;;;;;20.62;64.99;102194.94;5037058;28;20083;-77
2023/07/10 05:58:02;;;;;;;0.52;0.52;;;;;;;20.63;64.57;102201.19;5031147;28;20104;-76
2023/07/10 06:00:28;;;;;;;0.10;0.10;;;;;;;20.74;64.53;102211.56;5035332;28;20041;-78
2023/07/10 06:02:55;;;;;;;0.10;0.10;;;;;;;20.77;64.56;102219.50;5034817;28;20025;-78
2023/07/10 06:05:21;;;;;;;0.10;0.10;;;;;;;20.84;64.61;102218.31;5033352;28;20276;-79
2023/07/10 06:07:47;;;;;;;0.10;0.10;;;;;;;20.90;64.50;102214.47;5034381;28;20060;-78
2023/07/10 06:10:13;;;;;;;0.10;0.10;;;;;;;20.95;64.21;102215.19;5027020;28;20524;-78
2023/07/10 06:12:41;;;;;;;0.20;0.20;;;;;;;20.96;64.11;102215.09;5035337;28;20495;-79
2023/07/10 06:15:08;;;;;;;0.10;0.10;;;;;;;21.01;64.07;102217.63;5035170;28;20537;-80
2023/07/10 06:17:34;;;;;;;0.57;0.57;;;;;;;21.06;63.55;102220.09;5035996;28;20087;-79
2023/07/10 06:20:00;;;;;;;0.03;0.03;;;;;;;21.17;63.60;102217.81;5035353;28;20450;-79
2023/07/10 06:22:26;;;;;;;0.10;0.10;;;;;;;21.24;63.69;102223.84;5038049;28;20025;-78
2023/07/10 06:24:52;;;;;;;0.00;0.00;;;;;;;21.22;63.13;102215.81;5034376;28;20037;-78
2023/07/10 06:27:18;;;;;;;0.00;0.00;;;;;;;21.18;62.71;102219.56;5036250;28;20052;-79
2023/07/10 06:29:44;;;;;;;1.23;0.90;;;;;;;21.26;62.49;102217.44;5036253;28;20022;-78
2023/07/10 06:32:11;;;;;;;0.10;0.10;;;;;;;21.26;61.86;102228.22;5030377;28;20034;-78
2023/07/10 06:34:37;;;;;;;0.10;0.10;;;;;;;21.19;62.10;102232.13;5033901;28;20026;-78
2023/07/10 06:37:03;;;;;;;0.13;0.13;;;;;;;21.33;61.97;102226.13;5035355;28;20399;-79
2023/07/10 06:39:29;;;;;;;0.03;0.03;;;;;;;21.42;62.09;102228.44;5035263;28;20018;-78
2023/07/10 06:41:55;;;;;;;0.00;0.00;;;;;;;21.46;62.00;102231.88;5043964;28;20041;-79
2023/07/10 06:44:21;;;;;;;0.08;0.08;;;;;;;21.35;61.28;102226.94;5051207;28;20117;-79
2023/07/10 06:46:47;;;;;;;2.38;0.65;;;;;;;21.53;61.50;102230.63;5043673;28;20029;-79
2023/07/10 06:49:13;;;;;;;2.00;1.08;;;;;;;21.52;61.22;102237.00;5048907;28;20465;-79
2023/07/10 06:51:39;;;;;;;0.32;0.32;;;;;;;21.57;60.97;102243.09;5048939;28;20510;-79
2023/07/10 06:54:06;;;;;;;0.40;0.40;;;;;;;21.58;60.41;102246.66;5051137;28;20037;-77
2023/07/10 06:56:32;;;;;;;0.10;0.10;;;;;;;21.68;61.06;102250.69;5033134;28;20028;-78
2023/07/10 06:58:59;;;;;;;0.03;0.03;;;;;;;21.75;60.78;102256.69;5034169;28;20021;-78
2023/07/10 07:01:25;;;;;;;0.57;0.57;;;;;;;21.77;59.91;102260.19;5034483;28;20036;-77
2023/07/10 07:03:51;;;;;;;0.40;0.40;;;;;;;21.86;59.41;102243.59;5037196;28;20041;-77
2023/07/10 07:06:17;;;;;;;0.10;0.10;;;;;;;21.85;59.00;102246.38;5040722;28;20040;-76
2023/07/10 07:08:47;;;;;;;0.73;0.73;;;;;;;21.97;58.72;102254.78;5036088;28;20495;-77
2023/07/10 07:11:13;;;;;;;0.32;0.32;;;;;;;22.07;58.73;102260.63;5029482;28;20042;-77
2023/07/10 07:13:39;;;;;;;0.10;0.10;;;;;;;22.14;57.70;102250.41;5033442;28;20022;-77
2023/07/10 07:16:05;;;;;;;0.25;0.25;;;;;;;22.20;58.01;102262.75;5024951;28;20774;-77
2023/07/10 07:18:32;;;;;;;0.05;0.05;;;;;;;22.24;57.26;102251.75;5031030;28;20030;-77
2023/07/10 07:20:58;;;;;;;0.10;0.10;;;;;;;22.32;56.96;102256.78;5032408;28;20048;-77
2023/07/10 07:23:26;;;;;;;0.10;0.10;;;;;;;22.33;56.68;102246.84;5033023;28;20026;-77
2023/07/10 07:25:54;;;;;;;0.20;0.20;;;;;;;22.43;56.56;102253.59;5031754;28;20433;-77
2023/07/10 07:28:21;;;;;;;0.10;0.10;;;;;;;22.49;56.37;102241.63;5032100;28;20033;-77
2023/07/10 07:30:47;;;;;;;0.10;0.10;;;;;;;22.56;56.84;102249.34;5031664;28;20041;-77
2023/07/10 07:33:15;;;;;;;0.13;0.13;;;;;;;22.52;54.51;102250.47;5034071;28;20176;-78
2023/07/10 07:35:41;;;;;;;0.00;0.00;;;;;;;22.68;55.64;102249.69;5037663;28;20028;-78
2023/07/10 07:38:07;;;;;;;0.30;0.30;;;;;;;22.67;54.65;102247.94;5036392;28;20132;-79
2023/07/10 07:40:33;;;;;;;0.15;0.15;;;;;;;22.69;53.63;102249.66;5041177;28;20243;-79
2023/07/10 07:42:59;;;;;;;0.65;0.65;;;;;;;22.74;53.60;102252.09;5040412;28;20103;-78
2023/07/10 07:45:25;;;;;;;0.10;0.10;;;;;;;22.84;53.51;102252.53;5030446;28;20036;-77
2023/07/10 07:47:52;;;;;;;0.10;0.10;;;;;;;22.87;53.27;102245.16;5032350;28;20061;-78
2023/07/10 07:50:18;;;;;;;0.10;0.10;;;;;;;22.93;52.68;102252.94;5031684;28;20033;-78
2023/07/10 07:52:44;;;;;;;0.00;0.00;;;;;;;22.98;52.22;102251.84;5035135;28;20040;-77
2023/07/10 07:55:10;;;;;;;0.20;0.20;;;;;;;22.97;50.43;102248.28;5039947;28;20055;-76
2023/07/10 07:57:38;;;;;;;0.00;0.00;;;;;;;23.07;51.09;102243.28;5033478;28;20040;-79
2023/07/10 08:00:06;;;;;;;0.00;0.00;;;;;;;23.14;52.04;102242.03;5031790;28;20031;-79
2023/07/10 08:02:32;;;;;;;0.00;0.00;;;;;;;23.14;50.34;102250.13;5033061;28;20108;-78
2023/07/10 08:05:00;;;;;;;0.52;0.52;;;;;;;23.18;50.59;102240.94;5033684;28;20030;-78
2023/07/10 08:07:26;;;;;;;0.60;0.60;;;;;;;23.22;49.86;102239.81;5031641;28;20029;-78
2023/07/10 08:09:52;;;;;;;0.10;0.10;;;;;;;23.31;49.77;102240.31;5031524;28;20057;-78
2023/07/10 08:12:18;;;;;;;0.10;0.10;;;;;;;23.26;49.23;102236.00;5032289;28;20403;-79
2023/07/10 08:14:44;;;;;;;0.17;0.17;;;;;;;23.42;50.27;102233.34;5034617;28;20029;-79
2023/07/10 08:17:11;;;;;;;0.47;0.47;;;;;;;23.44;49.27;102241.41;5033752;28;20025;-78
2023/07/10 08:19:37;;;;;;;0.10;0.10;;;;;;;23.55;49.18;102246.25;5035434;28;20475;-79
2023/07/10 08:22:03;;;;;;;0.03;0.03;;;;;;;23.54;48.44;102242.69;5034521;28;20029;-77
2023/07/10 08:24:29;;;;;;;0.00;0.00;;;;;;;23.62;47.72;102233.28;5033061;28;20469;-78
2023/07/10 08:26:58;;;;;;;0.10;0.10;;;;;;;23.71;48.83;102246.31;5031573;28;20048;-78
2023/07/10 08:29:28;;;;;;;2.47;1.02;;;;;;;23.72;47.30;102240.81;5032087;28;20483;-80
2023/07/10 08:31:56;;;;;;;0.10;0.10;;;;;;;23.69;46.14;102250.91;5032283;28;20411;-78
2023/07/10 08:34:23;;;;;;;0.10;0.10;;;;;;;23.74;46.13;102248.88;5034243;28;20029;-78
2023/07/10 08:36:52;;;;;;;0.10;0.10;;;;;;;23.75;45.80;102237.94;5034601;28;20025;-79
2023/07/10 08:39:20;;;;;;;0.10;0.10;;;;;;;23.82;47.33;102240.31;5033454;28;20513;-78
2023/07/10 08:41:53;;;;;;;0.20;0.20;;;;;;;23.92;47.11;102236.19;5032974;28;20033;-77
2023/07/10 08:44:22;;;;;;;0.10;0.10;;;;;;;23.94;47.08;102241.50;5034931;28;20033;-80
2023/07/10 08:46:49;;;;;;;0.05;0.05;;;;;;;24.05;47.67;102241.78;5034091;28;20065;-80
2023/07/10 08:49:33;;;;;;;0.30;0.30;;;;;;;24.06;44.70;102246.25;5035241;28;20037;-81
2023/07/10 08:52:09;;;;;;;0.20;0.20;;;;;;;24.20;45.86;102251.78;5031803;28;20029;-77
2023/07/10 08:54:35;;;;;;;0.10;0.10;;;;;;;24.19;46.70;102250.03;5031565;28;20044;-79
2023/07/10 09:05:25;;;;;;;0.10;0.10;;;;;;;24.38;45.94;102254.44;5083452;27;20359;-78
2023/07/10 09:07:53;;;;;;;0.08;0.08;;;;;;;24.36;46.35;102254.53;5083874;28;20024;-79
2023/07/10 09:10:23;;;;;;;0.40;0.40;;;;;;;24.38;46.27;102254.44;5078664;28;20032;-78
2023/07/10 09:12:54;;;;;;;0.00;0.00;;;;;;;24.51;47.17;102250.06;5084492;28;20062;-78
2023/07/10 09:15:28;;;;;;;0.30;0.30;;;;;;;24.66;47.21;102252.88;5083436;28;20090;-79
2023/07/10 09:20:41;;;;;;;0.00;0.00;;;;;;;24.79;46.18;102263.91;5110009;27;20413;-79
2023/07/10 09:23:22;;;;;;;0.00;0.00;;;;;;;24.99;46.52;102260.03;5070586;28;20509;-78
2023/07/10 09:25:54;;;;;;;0.20;0.20;;;;;;;25.03;45.95;102251.63;5072834;28;20486;-77
2023/07/10 09:28:23;;;;;;;0.82;0.82;;;;;;;25.09;45.33;102254.94;5072516;28;20033;-79
2023/07/10 09:34:00;;;;;;;0.00;0.00;;;;;;;25.18;45.31;102246.25;5091642;27;20407;-78
2023/07/10 09:36:27;;;;;;;0.10;0.10;;;;;;;25.17;45.56;102237.25;5087348;28;20383;-78
2023/07/10 09:38:53;;;;;;;0.15;0.15;;;;;;;25.22;45.22;102227.94;5089947;28;20032;-78
2023/07/10 09:41:23;;;;;;;0.00;0.00;;;;;;;25.36;45.48;102219.84;5092880;28;20024;-80
2023/07/10 09:43:56;;;;;;;1.38;0.65;;;;;;;25.31;44.44;102244.53;5092325;28;20436;-79
2023/07/10 09:46:26;;;;;;;0.00;0.00;;;;;;;25.34;46.00;102246.19;5088384;28;20474;-79
2023/07/10 09:48:55;;;;;;;0.10;0.10;;;;;;;25.31;44.66;102240.94;5091960;28;20044;-79
2023/07/10 09:51:23;;;;;;;0.10;0.10;;;;;;;25.30;43.75;102244.66;5092642;28;20021;-78
2023/07/10 09:53:53;;;;;;;0.10;0.10;;;;;;;25.35;45.46;102248.81;5091931;28;20036;-78
2023/07/10 09:59:22;;;;;;;0.10;0.10;;;;;;;25.52;44.04;102242.41;5071299;27;20383;-78
2023/07/10 10:01:53;;;;;;;0.10;0.10;;;;;;;25.49;44.08;102242.56;5071092;28;20561;-77
2023/07/10 10:04:32;;;;;;;0.10;0.10;;;;;;;25.74;44.17;102241.03;5072012;28;20441;-79
2023/07/10 10:07:14;;;;;;;0.10;0.10;;;;;;;25.77;41.73;102240.88;5070977;28;20056;-79
2023/07/10 10:10:23;;;;;;;0.10;0.10;;;;;;;25.83;42.33;102237.78;5071207;28;20522;-78
2023/07/10 10:16:23;;;;;;;0.10;0.10;;;;;;;25.57;42.80;102244.84;5045250;28;20796;-77
2023/07/10 10:18:58;;;;;;;0.10;0.10;;;;;;;25.60;43.53;102241.06;5052252;28;20037;-79
2023/07/10 10:21:25;;;;;;;0.10;0.10;;;;;;;25.51;43.85;102237.94;5047286;28;20029;-79
2023/07/10 10:23:57;;;;;;;0.10;0.10;;;;;;;25.49;44.50;102236.28;5032802;28;20029;-79
2023/07/10 10:29:51;;;;;;;0.00;0.00;;;;;;;25.57;44.70;102238.50;5052838;28;20402;-77
2023/07/10 10:38:48;;;;;;;0.10;0.10;;;;;;;25.39;44.72;102254.97;5116170;27;20355;-79
2023/07/10 10:44:27;;;;;;;0.00;0.00;;;;;;;25.44;44.39;102249.25;5126973;27;20416;-79
2023/07/10 10:47:33;;;;;;;0.00;0.00;;;;;;;25.50;43.99;102249.75;5096060;28;20056;-79
2023/07/10 10:50:18;;;;;;;0.10;0.10;;;;;;;25.59;45.10;102258.28;5094987;28;20033;-79
2023/07/10 11:04:14;;;;;;;0.10;0.10;;;;;;;25.90;44.30;102245.53;5082548;28;20397;-79
2023/07/10 11:07:00;;;;;;;0.10;0.10;;;;;;;25.91;43.68;102241.84;5084723;28;20039;-77
2023/07/10 11:09:52;;;;;;;0.13;0.13;;;;;;;25.62;42.86;102245.41;5084235;28;20028;-78
2023/07/10 11:12:23;;;;;;;0.10;0.10;;;;;;;25.58;43.13;102240.25;5067070;28;20068;-79
2023/07/10 11:14:54;;;;;;;0.10;0.10;;;;;;;25.65;42.56;102241.63;5058919;28;20044;-76
2023/07/10 11:17:20;;;;;;;0.10;0.10;;;;;;;25.79;44.19;102246.19;5057814;28;20037;-77
2023/07/10 11:19:48;;;;;;;0.10;0.10;;;;;;;25.92;43.83;102235.44;5054745;28;20288;-76
2023/07/10 11:22:31;;;;;;;0.00;0.00;;;;;;;26.07;41.69;102231.78;5047066;28;20037;-77
2023/07/10 11:25:01;;;;;;;0.10;0.10;;;;;;;26.07;41.47;102226.34;5044959;28;20034;-75
2023/07/10 11:27:36;;;;;;;0.10;0.10;;;;;;;26.25;42.49;102242.44;5048810;28;20018;-77
2023/07/10 11:30:13;;;;;;;0.08;0.08;;;;;;;26.16;41.34;102231.19;5047264;28;20506;-77
2023/07/10 11:33:04;;;;;;;0.28;0.28;;;;;;;26.14;42.03;102230.44;5048201;28;20025;-78
2023/07/10 11:35:32;;;;;;;0.15;0.15;;;;;;;26.05;41.65;102228.25;5053180;28;20094;-78
2023/07/10 11:40:45;;;;;;;0.00;0.00;;;;;;;25.89;42.17;102219.34;5104526;27;20775;-78
2023/07/10 11:46:15;;;;;;;0.20;0.20;;;;;;;26.10;42.78;102226.16;5110463;27;20395;-78
2023/07/10 11:48:56;;;;;;;0.00;0.00;;;;;;;26.08;43.34;102225.41;5119544;28;20027;-79
2023/07/10 11:51:28;;;;;;;0.00;0.00;;;;;;;25.98;42.51;102216.91;5113105;28;20052;-79
2023/07/10 12:05:17;;;;;;;0.08;0.08;;;;;;;27.21;41.51;102225.22;5108336;27;1182988;-78
2023/07/10 12:10:31;;;;;;;0.00;0.00;;;;;;;27.24;40.56;102206.84;5117084;27;20897;-78
2023/07/10 12:12:59;;;;;;;0.00;0.00;;;;;;;27.09;39.33;102211.50;5097123;28;20428;-78
2023/07/10 12:15:26;;;;;;;0.10;0.10;;;;;;;27.03;40.01;102202.88;5095390;28;20056;-78
2023/07/10 12:17:55;;;;;;;0.17;0.17;;;;;;;26.95;40.18;102211.56;5094427;28;20032;-77
2023/07/10 12:23:06;;;;;;;0.10;0.10;;;;;;;26.86;40.26;102207.63;5122917;27;1190473;-78
2023/07/10 12:25:33;;;;;;;0.00;0.00;;;;;;;26.82;41.73;102216.09;5162510;27;20083;-78
2023/07/10 12:28:02;;;;;;;0.00;0.00;;;;;;;26.79;40.81;102209.91;5161236;27;20035;-79
2023/07/10 12:30:28;;;;;;;0.10;0.10;;;;;;;27.05;41.93;102209.09;5166259;27;21089;-78
2023/07/10 12:32:56;;;;;;;0.55;0.55;;;;;;;26.90;39.81;102202.84;5170341;27;20502;-78
2023/07/10 12:35:41;;;;;;;0.03;0.03;;;;;;;26.97;41.09;102198.75;5173109;27;20029;-79
2023/07/10 12:38:10;;;;;;;0.10;0.10;;;;;;;26.92;40.76;102195.47;5173394;27;20096;-79
2023/07/10 12:40:38;;;;;;;0.00;0.00;;;;;;;26.92;40.75;102185.44;5174331;27;20030;-80